Detall de PIREP

Printer-friendly versionPDF version

[2015/12/28 17:03:00]
Flight IATA:CT1004
Pilot Number:012
Company ICAO:CAT
Aircraft Type:C750/F
PAX:4
Departing Airport: LFMP
Destination Airport: EGPF
Alternate Airport:EIDW
Online: VATSIM
Route:ORBIL/M080F180 G36 GAI UT24 SECHE UN863 CNA/M085F510 UM184 TUPAR UY120 AKIKI UN867 KATHY UL980 MID UM185 OCK UQ3 HEMEL UT420 TNT UM868 ADELU UL26 MAMUL UL613 HALIF UN590 APPLE
Flight Level:F510
No Slew and time accel
No pause
Crash detect
Detect pilot in Cockpit between each 30 and 45 minutes
17:03 Zero fuel Weight: 23046 Lbs, Fuel Weight: 9792 Lbs
17:03 VATSIM:LFMP 281630Z AUTO 16010KT 9999 NCD 16/06 Q1025
17:03 VATSIM:EGPF 281650Z AUTO 10013KT 9999 //////CB 11/06 Q1003
17:03 X-MAS CHARTER
17:04 Parking Brakes off
17:07 Take-off
17:07 Take off Weight: 32738 Lbs
17:07 Wind: 159º @ 010 Knots Heading: 327º
17:07 POS N42º 45´ 21´´ E002º 51´ 36´´
17:07 Gear Up: 156 Knots
17:07 Flaps:3 at 156 Knots
17:08 Flaps:2 at 175 Knots
17:08 Flaps:0 at 179 Knots
17:22 Wind:198º@048 Knots Heading: 291º Ground Speed: 497 Knots Altitude 39196 ft
17:28 TOC
17:28 Fuel Weight: 8903 Lb
17:37 Wind:230º@036 Knots Heading: 330º Ground Speed: 512 Knots Altitude 51145 ft
17:52 Wind:219º@049 Knots Heading: 350º Ground Speed: 537 Knots Altitude 51043 ft
18:07 Wind:215º@050 Knots Heading: 000º Ground Speed: 546 Knots Altitude 50961 ft
18:22 Wind:215º@057 Knots Heading: 323º Ground Speed: 524 Knots Altitude 50977 ft
18:37 Wind:210º@065 Knots Heading: 293º Ground Speed: 489 Knots Altitude 50928 ft
18:47 TOD
18:47 Fuel Weight: 7647 Lb
18:52 Wind:180º@097 Knots Heading: 324º Ground Speed: 585 Knots Altitude 33234 ft
19:05 Flaps:2 at 184 Knots
19:06 Flaps:3 at 179 Knots
19:07 Wind:110º@013 Knots Heading: 195º Ground Speed: 175 Knots Altitude 2299 ft
19:07 Flaps:4 at 157 Knots
19:08 Gear Down: 161 Knots
19:09 Flaps:5 at 161 Knots
19:12 TouchDown:Rate -143 ft/min Speed: 126 Knots
19:12 VATSIM:EGPF 281850Z AUTO 09013KT 9999 NCD 11/06 Q1002
19:12 Land
19:12 Wind:113º@013 Knots
19:12 Heading: 045º
19:12 Flight Duration: 02:05
19:12 Landing Weight: 30434 Lbs
19:12 POS N55º 52´ 23´´ W004º 25´ 51´´
19:15 Parking brakes on
19:15 Block to Block Duration: 02:11
19:15 Final Fuel: 7363 Lbls
19:15 Spent Fuel: 2429 Lbls
19:15 Flight Length: 982 NM
19:15 TOD Land Length: 138 NM

Exportar CSV

Powered by Drupal - Modified by Danger4k